Time;durP1;ratioP1;P1;durP2;ratioP2;P2;SDS_P1;SDS_P2;PMS_P1;PMS_P2;Temp;Humidity;BMP_temperature;BMP_pressure;BME280_temperature;BME280_humidity;BME280_pressure;Samples;Min_cycle;Max_cycle;Signal;HPM_P1;HPM_P2
2021/12/13 00:02:02;;;;;;;7.50;5.28;;;;;;;;;;4947062;29;20193;-80
2021/12/13 00:04:32;;;;;;;6.50;4.80;;;;;;;;;;4966547;28;20614;-80
2021/12/13 00:07:05;;;;;;;7.38;5.82;;;;;;;;;;4966353;29;20220;-79
2021/12/13 00:09:34;;;;;;;8.70;5.70;;;;;;;;;;4946794;29;20192;-79
2021/12/13 00:12:04;;;;;;;6.05;4.85;;;;;;;;;;4948626;29;20677;-80
2021/12/13 00:14:35;;;;;;;6.47;5.00;;;;;;;;;;4967197;28;20185;-80
2021/12/13 00:17:01;;;;;;;6.57;5.15;;;;;;;;;;4964581;29;20188;-80
2021/12/13 00:19:32;;;;;;;5.40;4.57;;;;;;;;;;4947772;29;20184;-80
2021/12/13 00:22:02;;;;;;;8.00;5.70;;;;;;;;;;4946576;29;20992;-80
2021/12/13 00:24:40;;;;;;;5.38;4.47;;;;;;;;;;4966004;28;20185;-81
2021/12/13 00:27:14;;;;;;;6.00;4.70;;;;;;;;;;4964121;29;20252;-80
2021/12/13 00:29:46;;;;;;;6.43;5.20;;;;;;;;;;4966428;28;20183;-80
2021/12/13 00:32:41;;;;;;;5.22;4.32;;;;;;;;;;4946913;29;20654;-80
2021/12/13 00:35:13;;;;;;;4.70;4.25;;;;;;;;;;4951447;29;20204;-80
2021/12/13 00:37:42;;;;;;;7.15;4.30;;;;;;;;;;4945386;29;20192;-81
2021/12/13 00:40:20;;;;;;;4.45;3.72;;;;;;;;;;4947727;29;20184;-80
2021/12/13 00:42:48;;;;;;;5.63;4.78;;;;;;;;;;4946504;29;20187;-80
2021/12/13 00:45:16;;;;;;;5.95;4.82;;;;;;;;;;4966135;29;20565;-80
2021/12/13 00:47:43;;;;;;;4.82;4.07;;;;;;;;;;4939329;29;20208;-80
2021/12/13 00:50:11;;;;;;;6.97;4.82;;;;;;;;;;4949654;29;20184;-80
2021/12/13 00:52:38;;;;;;;4.40;3.83;;;;;;;;;;4947780;29;20184;-80
2021/12/13 00:55:15;;;;;;;6.80;4.63;;;;;;;;;;4965414;28;20193;-80
2021/12/13 00:57:46;;;;;;;7.35;4.38;;;;;;;;;;4945285;29;20448;-80
2021/12/13 01:00:18;;;;;;;4.57;3.70;;;;;;;;;;4945651;29;20185;-81
2021/12/13 01:02:50;;;;;;;4.35;3.95;;;;;;;;;;4948470;28;20173;-80
2021/12/13 01:05:39;;;;;;;6.88;4.70;;;;;;;;;;4967243;29;20227;-80
2021/12/13 01:08:11;;;;;;;5.22;3.95;;;;;;;;;;4890563;29;20438;-81
2021/12/13 01:10:40;;;;;;;7.50;4.47;;;;;;;;;;4875968;29;20681;-80
2021/12/13 01:13:22;;;;;;;5.00;3.92;;;;;;;;;;4875612;29;20258;-81
2021/12/13 01:16:08;;;;;;;6.70;4.57;;;;;;;;;;4890282;29;22366;-81
2021/12/13 01:18:55;;;;;;;5.60;4.18;;;;;;;;;;4875026;29;20201;-81
2021/12/13 01:21:33;;;;;;;4.88;4.38;;;;;;;;;;4874781;29;20186;-81
2021/12/13 01:24:06;;;;;;;4.80;3.97;;;;;;;;;;4887629;29;20832;-80
2021/12/13 01:26:44;;;;;;;5.07;4.07;;;;;;;;;;4874202;29;20207;-81
2021/12/13 01:29:15;;;;;;;5.75;3.85;;;;;;;;;;4874799;29;20210;-81
2021/12/13 01:31:50;;;;;;;6.82;3.78;;;;;;;;;;4890808;29;20195;-81
2021/12/13 01:34:17;;;;;;;7.18;3.70;;;;;;;;;;4890923;29;20194;-80
2021/12/13 01:36:50;;;;;;;6.45;4.20;;;;;;;;;;4890966;29;20327;-80
2021/12/13 01:39:22;;;;;;;5.22;4.15;;;;;;;;;;4873918;29;20349;-81
2021/12/13 01:41:50;;;;;;;4.30;3.08;;;;;;;;;;4887739;29;20198;-81
2021/12/13 01:44:19;;;;;;;4.80;3.47;;;;;;;;;;4903405;29;20204;-80
2021/12/13 01:46:48;;;;;;;4.60;3.80;;;;;;;;;;4964071;29;20218;-81
2021/12/13 01:49:14;;;;;;;6.97;4.32;;;;;;;;;;4945416;29;20185;-81
2021/12/13 01:51:40;;;;;;;4.43;3.75;;;;;;;;;;4944132;29;20246;-81
2021/12/13 01:54:09;;;;;;;4.80;3.92;;;;;;;;;;4944587;29;20184;-81
2021/12/13 01:59:27;;;;;;;4.15;3.75;;;;;;;;;;4965182;29;20203;-81
2021/12/13 02:01:54;;;;;;;6.57;4.60;;;;;;;;;;4964944;29;20581;-81
2021/12/13 02:04:22;;;;;;;7.18;4.07;;;;;;;;;;4944593;29;20564;-80
2021/12/13 02:06:50;;;;;;;4.05;3.58;;;;;;;;;;4944955;29;20243;-80
2021/12/13 02:09:21;;;;;;;5.10;3.55;;;;;;;;;;4945013;29;20254;-81
2021/12/13 02:11:48;;;;;;;5.85;4.22;;;;;;;;;;4947713;28;20194;-81
2021/12/13 02:14:17;;;;;;;4.72;3.53;;;;;;;;;;4947515;29;20240;-81
2021/12/13 02:16:57;;;;;;;5.38;3.97;;;;;;;;;;4963723;29;20208;-81
2021/12/13 02:19:31;;;;;;;5.18;3.85;;;;;;;;;;4946459;29;20203;-81
2021/12/13 02:22:04;;;;;;;3.50;3.10;;;;;;;;;;4944416;29;20188;-81
2021/12/13 02:24:30;;;;;;;5.78;3.83;;;;;;;;;;4964259;29;20184;-81
2021/12/13 02:26:58;;;;;;;7.00;3.35;;;;;;;;;;4947197;29;20204;-81
2021/12/13 02:29:34;;;;;;;4.82;3.92;;;;;;;;;;4944319;29;20236;-80
2021/12/13 02:32:00;;;;;;;6.78;4.63;;;;;;;;;;4964785;29;20180;-81
2021/12/13 02:34:29;;;;;;;4.95;3.53;;;;;;;;;;4946805;29;20220;-81
2021/12/13 02:36:56;;;;;;;5.30;3.90;;;;;;;;;;4946597;29;20216;-81
2021/12/13 02:39:30;;;;;;;4.00;3.60;;;;;;;;;;4944940;29;20215;-81
2021/12/13 02:41:57;;;;;;;5.00;3.75;;;;;;;;;;4955072;29;20188;-80
2021/12/13 02:44:37;;;;;;;5.93;4.30;;;;;;;;;;4943968;29;20191;-81
2021/12/13 02:47:06;;;;;;;5.07;4.55;;;;;;;;;;4967956;28;20200;-80
2021/12/13 02:49:33;;;;;;;5.07;3.80;;;;;;;;;;4964380;28;20191;-81
2021/12/13 02:52:01;;;;;;;5.65;4.15;;;;;;;;;;4964137;29;20184;-81
2021/12/13 02:54:30;;;;;;;8.43;4.70;;;;;;;;;;4943758;29;20198;-81
2021/12/13 02:57:16;;;;;;;5.93;3.97;;;;;;;;;;4932213;29;20192;-81
2021/12/13 02:59:51;;;;;;;5.20;3.60;;;;;;;;;;4961545;28;20638;-80
2021/12/13 03:02:22;;;;;;;5.55;3.80;;;;;;;;;;4948044;29;20172;-80
2021/12/13 03:04:49;;;;;;;7.50;4.15;;;;;;;;;;4967490;29;20239;-81
2021/12/13 03:07:24;;;;;;;3.65;3.35;;;;;;;;;;4967428;28;20216;-81
2021/12/13 03:09:52;;;;;;;7.35;4.10;;;;;;;;;;4947933;29;20202;-81
2021/12/13 03:12:19;;;;;;;5.30;3.30;;;;;;;;;;4967124;28;20213;-80
2021/12/13 03:14:48;;;;;;;5.85;4.03;;;;;;;;;;4950344;28;20239;-81
2021/12/13 03:17:22;;;;;;;7.75;4.47;;;;;;;;;;4968144;29;20196;-80
2021/12/13 03:20:00;;;;;;;7.15;4.50;;;;;;;;;;4947868;29;20207;-81
2021/12/13 03:22:45;;;;;;;5.88;4.75;;;;;;;;;;4947498;29;20219;-81
2021/12/13 03:25:18;;;;;;;5.30;3.70;;;;;;;;;;4966809;28;20252;-80
2021/12/13 03:27:53;;;;;;;5.13;3.72;;;;;;;;;;4966651;28;20214;-81
2021/12/13 03:30:27;;;;;;;7.00;4.78;;;;;;;;;;4948014;29;20180;-80
2021/12/13 03:32:53;;;;;;;4.45;3.50;;;;;;;;;;4949425;29;20192;-80
2021/12/13 03:35:22;;;;;;;5.07;3.67;;;;;;;;;;4947745;29;20237;-81
2021/12/13 03:37:56;;;;;;;5.18;3.90;;;;;;;;;;4966250;29;20451;-80
2021/12/13 03:40:23;;;;;;;4.95;4.05;;;;;;;;;;4946517;29;20187;-80
2021/12/13 03:43:03;;;;;;;6.07;4.15;;;;;;;;;;4955745;29;20216;-80
2021/12/13 03:45:35;;;;;;;4.50;3.85;;;;;;;;;;4947238;29;20203;-80
2021/12/13 03:48:02;;;;;;;7.63;4.65;;;;;;;;;;4949160;29;20227;-80
2021/12/13 03:50:30;;;;;;;4.97;3.85;;;;;;;;;;4967335;29;20176;-80
2021/12/13 03:52:58;;;;;;;6.20;4.63;;;;;;;;;;4965896;29;20252;-81
2021/12/13 03:55:25;;;;;;;4.63;3.60;;;;;;;;;;4948991;29;20188;-81
2021/12/13 03:57:54;;;;;;;3.95;3.55;;;;;;;;;;4947105;29;20192;-80
2021/12/13 04:00:22;;;;;;;7.68;3.63;;;;;;;;;;4947967;29;20646;-81
2021/12/13 04:02:49;;;;;;;5.63;4.25;;;;;;;;;;4949570;29;20954;-80
2021/12/13 04:05:18;;;;;;;5.55;4.57;;;;;;;;;;4950281;29;20247;-81
2021/12/13 04:07:49;;;;;;;5.78;3.72;;;;;;;;;;4946495;29;20228;-80
2021/12/13 04:10:20;;;;;;;5.90;3.63;;;;;;;;;;4947115;29;20180;-80
2021/12/13 04:12:49;;;;;;;4.90;4.10;;;;;;;;;;4948417;29;20196;-80
2021/12/13 04:15:20;;;;;;;5.65;3.33;;;;;;;;;;4958212;28;20699;-81
2021/12/13 04:18:01;;;;;;;6.03;4.20;;;;;;;;;;4948724;28;20211;-80
2021/12/13 04:20:29;;;;;;;6.22;3.50;;;;;;;;;;4963585;29;20199;-80
2021/12/13 04:22:56;;;;;;;5.28;3.95;;;;;;;;;;4946063;29;20192;-80
2021/12/13 04:25:24;;;;;;;4.30;3.35;;;;;;;;;;4948705;29;20593;-80
2021/12/13 04:27:58;;;;;;;5.93;4.03;;;;;;;;;;4946404;29;20205;-81
2021/12/13 04:30:33;;;;;;;5.22;3.70;;;;;;;;;;4946553;29;20202;-80
2021/12/13 04:33:02;;;;;;;6.07;3.63;;;;;;;;;;4950504;28;20180;-80
2021/12/13 04:35:28;;;;;;;5.10;3.70;;;;;;;;;;4949381;29;20169;-80
2021/12/13 04:37:56;;;;;;;4.75;3.95;;;;;;;;;;4966282;29;20220;-81
2021/12/13 04:40:25;;;;;;;3.78;3.40;;;;;;;;;;4946312;29;20193;-81
2021/12/13 04:43:11;;;;;;;4.32;3.53;;;;;;;;;;4966178;28;20192;-80
2021/12/13 04:45:39;;;;;;;4.55;4.15;;;;;;;;;;4965218;28;20183;-80
2021/12/13 04:48:25;;;;;;;5.10;3.40;;;;;;;;;;4946494;29;20201;-80
2021/12/13 04:50:54;;;;;;;4.90;3.80;;;;;;;;;;4964947;28;20181;-80
2021/12/13 04:53:22;;;;;;;5.60;4.28;;;;;;;;;;4966377;29;20180;-81
2021/12/13 04:55:48;;;;;;;5.85;3.60;;;;;;;;;;4945620;29;20195;-80
2021/12/13 04:58:15;;;;;;;5.25;3.88;;;;;;;;;;4947373;29;20208;-81
2021/12/13 05:00:43;;;;;;;5.85;4.75;;;;;;;;;;4945927;29;20189;-80
2021/12/13 05:03:12;;;;;;;4.45;3.92;;;;;;;;;;4945710;29;20193;-81
2021/12/13 05:05:39;;;;;;;9.18;5.50;;;;;;;;;;4948513;28;20220;-80
2021/12/13 05:08:07;;;;;;;5.75;4.30;;;;;;;;;;4965205;29;20235;-81
2021/12/13 05:10:34;;;;;;;5.50;4.78;;;;;;;;;;4945825;29;20192;-81
2021/12/13 05:13:09;;;;;;;6.28;4.13;;;;;;;;;;4945939;29;20177;-80
2021/12/13 05:15:37;;;;;;;8.25;6.25;;;;;;;;;;4965013;28;20182;-80
2021/12/13 05:18:05;;;;;;;7.75;4.25;;;;;;;;;;4948389;29;20188;-80
2021/12/13 05:20:35;;;;;;;7.10;5.70;;;;;;;;;;4948291;29;20252;-80
2021/12/13 05:23:04;;;;;;;5.43;4.65;;;;;;;;;;4964774;29;20180;-79
2021/12/13 05:25:33;;;;;;;7.35;5.05;;;;;;;;;;4964280;28;20187;-80
2021/12/13 05:28:16;;;;;;;6.50;5.10;;;;;;;;;;4946463;29;20214;-81
2021/12/13 05:30:56;;;;;;;8.00;5.88;;;;;;;;;;4965381;28;20184;-80
2021/12/13 05:33:23;;;;;;;5.35;4.47;;;;;;;;;;4945486;29;20223;-80
2021/12/13 05:35:51;;;;;;;5.90;4.75;;;;;;;;;;4947178;28;20247;-80
2021/12/13 05:38:43;;;;;;;5.63;5.05;;;;;;;;;;4965883;29;20212;-80
2021/12/13 05:41:12;;;;;;;5.97;4.85;;;;;;;;;;4945073;29;20619;-80
2021/12/13 05:43:38;;;;;;;7.88;5.28;;;;;;;;;;4945159;29;20188;-80
2021/12/13 05:46:06;;;;;;;4.67;4.13;;;;;;;;;;4946287;29;20196;-80
2021/12/13 05:48:52;;;;;;;7.63;4.93;;;;;;;;;;4945111;29;20467;-81
2021/12/13 05:51:33;;;;;;;4.97;4.45;;;;;;;;;;4946872;29;20294;-81
2021/12/13 05:54:11;;;;;;;5.40;4.60;;;;;;;;;;4948402;29;20251;-80
2021/12/13 05:56:40;;;;;;;6.47;3.97;;;;;;;;;;4947865;29;20203;-80
2021/12/13 05:59:09;;;;;;;4.53;3.75;;;;;;;;;;4948171;29;20176;-80
2021/12/13 06:01:48;;;;;;;4.70;3.80;;;;;;;;;;4945418;29;20208;-81
2021/12/13 06:04:22;;;;;;;6.88;4.18;;;;;;;;;;4944683;29;20207;-80
2021/12/13 06:06:50;;;;;;;3.88;3.53;;;;;;;;;;4944067;29;20218;-80
2021/12/13 06:09:35;;;;;;;5.22;3.67;;;;;;;;;;4945004;29;20188;-82
2021/12/13 06:12:05;;;;;;;4.57;3.70;;;;;;;;;;4950810;28;20184;-82
2021/12/13 06:14:31;;;;;;;5.20;3.80;;;;;;;;;;4954678;28;20183;-82
2021/12/13 06:17:06;;;;;;;3.70;3.20;;;;;;;;;;4964611;29;20184;-82
2021/12/13 06:19:34;;;;;;;2.85;2.63;;;;;;;;;;4944211;29;20211;-82
2021/12/13 06:22:03;;;;;;;5.38;3.88;;;;;;;;;;4943615;29;20216;-82
2021/12/13 06:24:44;;;;;;;4.68;3.60;;;;;;;;;;4964533;28;20520;-82
2021/12/13 06:27:13;;;;;;;5.40;3.40;;;;;;;;;;4945480;29;20203;-82
2021/12/13 06:29:47;;;;;;;4.53;3.00;;;;;;;;;;4964702;28;20181;-82
2021/12/13 06:32:31;;;;;;;3.15;2.85;;;;;;;;;;4964544;29;20633;-82
2021/12/13 06:34:59;;;;;;;3.88;3.00;;;;;;;;;;4943071;29;20176;-82
2021/12/13 06:37:34;;;;;;;2.85;2.60;;;;;;;;;;4961474;28;20650;-82
2021/12/13 06:40:11;;;;;;;3.42;2.83;;;;;;;;;;4968517;28;20184;-82
2021/12/13 06:42:37;;;;;;;3.55;3.17;;;;;;;;;;4948485;29;20475;-82
2021/12/13 06:45:17;;;;;;;3.63;2.67;;;;;;;;;;4963385;29;20252;-83
2021/12/13 06:47:53;;;;;;;5.75;2.80;;;;;;;;;;4966997;28;20697;-82
2021/12/13 06:50:25;;;;;;;5.07;2.88;;;;;;;;;;4952051;29;20240;-82
2021/12/13 06:52:51;;;;;;;3.90;3.30;;;;;;;;;;4967745;28;20313;-82
2021/12/13 06:55:19;;;;;;;4.20;3.15;;;;;;;;;;4950518;29;20263;-82
2021/12/13 06:57:54;;;;;;;3.20;2.55;;;;;;;;;;4948104;29;20212;-82
2021/12/13 07:00:20;;;;;;;3.75;2.90;;;;;;;;;;4968299;28;20180;-83
2021/12/13 07:02:46;;;;;;;3.57;2.97;;;;;;;;;;4950567;28;20209;-80
2021/12/13 07:05:26;;;;;;;3.67;2.50;;;;;;;;;;4951182;29;20472;-82
2021/12/13 07:07:59;;;;;;;3.20;2.22;;;;;;;;;;4948225;29;20486;-83
2021/12/13 07:10:28;;;;;;;3.22;2.42;;;;;;;;;;4948062;29;20386;-82
2021/12/13 07:12:55;;;;;;;3.30;2.38;;;;;;;;;;4948111;29;20195;-81
2021/12/13 07:15:45;;;;;;;2.70;2.50;;;;;;;;;;4948003;29;20191;-82
2021/12/13 07:18:16;;;;;;;2.25;2.05;;;;;;;;;;4943064;29;20207;-82
2021/12/13 07:20:54;;;;;;;2.50;2.30;;;;;;;;;;4967591;29;20204;-82
2021/12/13 07:23:20;;;;;;;2.50;2.10;;;;;;;;;;4951077;29;20176;-82
2021/12/13 07:25:49;;;;;;;2.95;2.40;;;;;;;;;;4960231;29;20195;-81
2021/12/13 07:28:27;;;;;;;2.58;2.33;;;;;;;;;;4949816;29;20204;-81
2021/12/13 07:30:53;;;;;;;3.95;2.30;;;;;;;;;;4963382;29;20189;-81
2021/12/13 07:33:19;;;;;;;3.65;2.13;;;;;;;;;;4949761;29;20184;-82
2021/12/13 07:35:52;;;;;;;3.97;2.70;;;;;;;;;;4967546;29;20247;-81
2021/12/13 07:38:18;;;;;;;2.22;2.03;;;;;;;;;;4950493;29;20184;-81
2021/12/13 07:40:44;;;;;;;3.60;2.53;;;;;;;;;;4967494;28;20185;-81
2021/12/13 07:43:27;;;;;;;2.60;2.40;;;;;;;;;;4946798;29;20443;-81
2021/12/13 07:46:05;;;;;;;2.90;2.17;;;;;;;;;;4946377;29;20444;-81
2021/12/13 07:48:37;;;;;;;3.58;2.70;;;;;;;;;;4951208;28;20207;-82
2021/12/13 07:51:19;;;;;;;4.47;3.10;;;;;;;;;;4948457;29;20185;-81
2021/12/13 07:53:45;;;;;;;4.95;1.92;;;;;;;;;;4949856;29;20177;-81
2021/12/13 07:56:13;;;;;;;3.03;2.72;;;;;;;;;;4967738;29;20168;-83
2021/12/13 07:58:45;;;;;;;3.25;2.95;;;;;;;;;;4947477;28;20188;-83
2021/12/13 08:01:20;;;;;;;3.08;2.83;;;;;;;;;;4947658;29;20192;-82
2021/12/13 08:03:51;;;;;;;4.35;3.95;;;;;;;;;;4957849;28;20195;-83
2021/12/13 08:06:17;;;;;;;4.00;3.00;;;;;;;;;;4947943;29;22227;-84
2021/12/13 08:08:48;;;;;;;3.83;2.90;;;;;;;;;;4952348;28;20736;-84
2021/12/13 08:11:14;;;;;;;3.65;2.65;;;;;;;;;;4950727;29;20180;-84
2021/12/13 08:13:41;;;;;;;3.50;3.20;;;;;;;;;;4965693;28;20189;-84
2021/12/13 08:16:08;;;;;;;2.50;2.00;;;;;;;;;;4947031;28;20181;-84
2021/12/13 08:18:37;;;;;;;3.30;2.20;;;;;;;;;;4966172;28;20183;-84
2021/12/13 08:21:05;;;;;;;2.67;2.47;;;;;;;;;;4948601;29;20547;-84
2021/12/13 08:23:35;;;;;;;3.45;2.60;;;;;;;;;;4956327;29;20741;-83
2021/12/13 08:26:03;;;;;;;4.00;2.55;;;;;;;;;;4949446;29;20188;-84
2021/12/13 08:29:01;;;;;;;4.40;2.65;;;;;;;;;;4965599;28;20212;-84
2021/12/13 08:31:32;;;;;;;3.00;2.70;;;;;;;;;;4891585;29;20317;-83
2021/12/13 08:34:11;;;;;;;3.95;3.03;;;;;;;;;;4889897;29;20190;-84
2021/12/13 08:36:37;;;;;;;4.80;3.42;;;;;;;;;;4905374;29;20198;-82
2021/12/13 08:39:03;;;;;;;3.55;2.95;;;;;;;;;;4886448;29;20281;-83
2021/12/13 08:41:31;;;;;;;2.70;2.50;;;;;;;;;;4889648;29;20225;-83
2021/12/13 08:44:03;;;;;;;4.55;3.72;;;;;;;;;;4889010;29;20517;-83
2021/12/13 08:46:40;;;;;;;6.70;3.55;;;;;;;;;;4891745;29;20766;-83
2021/12/13 08:49:18;;;;;;;4.35;3.30;;;;;;;;;;4913959;29;20190;-84
2021/12/13 08:52:10;;;;;;;3.72;3.00;;;;;;;;;;4881715;29;20194;-83
2021/12/13 08:54:38;;;;;;;3.85;3.55;;;;;;;;;;4846820;29;20586;-84
2021/12/13 08:57:05;;;;;;;5.60;4.03;;;;;;;;;;4850873;29;20208;-84
2021/12/13 08:59:31;;;;;;;5.55;4.00;;;;;;;;;;4839228;29;20229;-83
2021/12/13 09:02:05;;;;;;;4.35;3.95;;;;;;;;;;4847555;29;20180;-84
2021/12/13 09:04:33;;;;;;;4.55;4.10;;;;;;;;;;4834474;29;20228;-83
2021/12/13 09:07:00;;;;;;;9.05;4.35;;;;;;;;;;4860628;29;20233;-84
2021/12/13 09:09:27;;;;;;;4.68;3.53;;;;;;;;;;4888842;29;20247;-84
2021/12/13 09:11:57;;;;;;;4.30;3.80;;;;;;;;;;4873062;29;20557;-84
2021/12/13 09:14:36;;;;;;;5.82;4.07;;;;;;;;;;4894565;29;20171;-84
2021/12/13 09:17:10;;;;;;;4.93;3.83;;;;;;;;;;4886552;29;20190;-84
2021/12/13 09:19:45;;;;;;;4.47;4.07;;;;;;;;;;4870654;29;20203;-84
2021/12/13 09:22:14;;;;;;;4.47;4.07;;;;;;;;;;4866187;29;20195;-86
2021/12/13 09:24:43;;;;;;;5.05;4.13;;;;;;;;;;4883462;29;20260;-85
2021/12/13 09:27:15;;;;;;;5.47;3.95;;;;;;;;;;4878125;29;20765;-84
2021/12/13 09:29:51;;;;;;;4.50;4.00;;;;;;;;;;4881400;29;20183;-85
2021/12/13 09:32:18;;;;;;;4.88;3.90;;;;;;;;;;4954691;28;20463;-87
2021/12/13 09:34:45;;;;;;;5.63;3.72;;;;;;;;;;4947570;29;20204;-84
2021/12/13 09:37:12;;;;;;;4.88;4.35;;;;;;;;;;4947642;29;20239;-86
2021/12/13 09:39:38;;;;;;;5.15;3.80;;;;;;;;;;4949977;29;20185;-84
2021/12/13 09:42:09;;;;;;;6.33;3.60;;;;;;;;;;4947613;29;20199;-84
2021/12/13 09:44:44;;;;;;;4.35;3.60;;;;;;;;;;4964848;28;20527;-84
2021/12/13 09:47:12;;;;;;;4.68;4.13;;;;;;;;;;4946233;29;20235;-84
2021/12/13 09:49:50;;;;;;;5.70;4.20;;;;;;;;;;4945435;29;20667;-84
2021/12/13 09:52:25;;;;;;;3.50;3.20;;;;;;;;;;4947508;29;20188;-85
2021/12/13 09:54:53;;;;;;;5.50;4.20;;;;;;;;;;4945177;29;20198;-85
2021/12/13 09:57:21;;;;;;;4.95;3.92;;;;;;;;;;4947072;29;20185;-84
2021/12/13 09:59:49;;;;;;;3.28;2.97;;;;;;;;;;4964267;29;20259;-83
2021/12/13 10:02:24;;;;;;;3.47;3.10;;;;;;;;;;4955184;29;20644;-83
2021/12/13 10:04:51;;;;;;;3.83;2.70;;;;;;;;;;4964013;29;20228;-85
2021/12/13 10:07:19;;;;;;;3.60;2.40;;;;;;;;;;4949707;29;20219;-84
2021/12/13 10:09:50;;;;;;;3.20;1.85;;;;;;;;;;4944698;29;20188;-85
2021/12/13 10:12:20;;;;;;;1.77;1.40;;;;;;;;;;4947154;28;20191;-84
2021/12/13 10:14:51;;;;;;;3.08;2.08;;;;;;;;;;4964773;28;20296;-84
2021/12/13 10:17:19;;;;;;;2.35;1.65;;;;;;;;;;4944020;29;20252;-83
2021/12/13 10:19:47;;;;;;;1.77;1.67;;;;;;;;;;4948954;29;20184;-84
2021/12/13 10:22:15;;;;;;;1.45;1.35;;;;;;;;;;4964320;28;20184;-83
2021/12/13 10:24:46;;;;;;;1.80;1.60;;;;;;;;;;4944780;29;20180;-86
2021/12/13 10:27:13;;;;;;;1.42;1.27;;;;;;;;;;4963703;29;20208;-85
2021/12/13 10:29:57;;;;;;;2.47;1.40;;;;;;;;;;4939762;29;20177;-84
2021/12/13 10:32:26;;;;;;;1.83;1.67;;;;;;;;;;4943993;29;20192;-86
2021/12/13 10:34:54;;;;;;;1.90;1.60;;;;;;;;;;4953940;28;20264;-82
2021/12/13 10:37:40;;;;;;;1.08;1.08;;;;;;;;;;4947654;29;20199;-82
2021/12/13 10:40:10;;;;;;;1.20;1.10;;;;;;;;;;4943376;29;20192;-84
2021/12/13 10:42:41;;;;;;;0.90;0.90;;;;;;;;;;4949112;28;20216;-84
2021/12/13 10:45:12;;;;;;;1.10;0.90;;;;;;;;;;4944653;29;20193;-83
2021/12/13 10:47:40;;;;;;;1.35;1.25;;;;;;;;;;4963325;28;20201;-84
2021/12/13 10:50:08;;;;;;;1.40;1.30;;;;;;;;;;4964430;29;20235;-86
2021/12/13 10:52:39;;;;;;;1.42;1.20;;;;;;;;;;4964876;28;20297;-85
2021/12/13 10:55:10;;;;;;;2.47;1.52;;;;;;;;;;4947311;29;20217;-82
2021/12/13 10:57:39;;;;;;;1.40;1.30;;;;;;;;;;4963957;28;20201;-84
2021/12/13 11:00:07;;;;;;;1.70;1.60;;;;;;;;;;4946798;29;20677;-84
2021/12/13 11:02:34;;;;;;;2.05;1.73;;;;;;;;;;4946383;29;20388;-87
2021/12/13 11:05:21;;;;;;;2.10;1.58;;;;;;;;;;4947553;29;20224;-84
2021/12/13 11:07:48;;;;;;;1.70;1.60;;;;;;;;;;4962810;29;20248;-85
2021/12/13 11:10:16;;;;;;;1.80;1.70;;;;;;;;;;4943935;29;20191;-83
2021/12/13 11:12:44;;;;;;;3.80;1.52;;;;;;;;;;4944911;29;20180;-82
2021/12/13 11:15:13;;;;;;;1.48;1.38;;;;;;;;;;4944401;29;20186;-83
2021/12/13 11:17:40;;;;;;;1.40;1.30;;;;;;;;;;4945971;28;20200;-83
2021/12/13 11:20:15;;;;;;;1.90;1.80;;;;;;;;;;4947389;29;20172;-83
2021/12/13 11:22:42;;;;;;;1.65;1.48;;;;;;;;;;4941186;29;20197;-83
2021/12/13 11:25:20;;;;;;;3.17;2.47;;;;;;;;;;4956479;28;20185;-84
2021/12/13 11:27:46;;;;;;;2.15;1.80;;;;;;;;;;4937286;29;20260;-83
2021/12/13 11:30:14;;;;;;;2.63;1.98;;;;;;;;;;4967495;29;20184;-83
2021/12/13 11:33:03;;;;;;;3.70;1.92;;;;;;;;;;4949954;29;20251;-83
2021/12/13 11:35:29;;;;;;;6.50;3.13;;;;;;;;;;4964318;28;20241;-83
2021/12/13 11:38:04;;;;;;;2.43;2.23;;;;;;;;;;4949980;29;20188;-84
2021/12/13 11:40:49;;;;;;;2.38;2.17;;;;;;;;;;4949042;29;20428;-83
2021/12/13 11:43:27;;;;;;;2.67;2.22;;;;;;;;;;4946965;29;20194;-83
2021/12/13 11:46:12;;;;;;;5.20;3.00;;;;;;;;;;4946135;29;20208;-81
2021/12/13 11:48:46;;;;;;;2.13;2.03;;;;;;;;;;4955010;29;20288;-83
2021/12/13 11:51:15;;;;;;;2.10;1.90;;;;;;;;;;4947384;29;20187;-84
2021/12/13 11:54:07;;;;;;;4.18;2.60;;;;;;;;;;4948376;29;20596;-83
2021/12/13 11:56:33;;;;;;;1.85;1.75;;;;;;;;;;4951927;28;20249;-83
2021/12/13 11:59:06;;;;;;;3.10;2.33;;;;;;;;;;4950577;29;20208;-84
2021/12/13 12:02:00;;;;;;;2.00;1.90;;;;;;;;;;4966609;28;20438;-86
2021/12/13 12:04:45;;;;;;;3.22;2.28;;;;;;;;;;4945747;29;20260;-86
2021/12/13 12:07:14;;;;;;;2.08;1.80;;;;;;;;;;4946104;29;20216;-86
2021/12/13 12:09:59;;;;;;;2.85;2.22;;;;;;;;;;4946746;29;20188;-86
2021/12/13 12:12:43;;;;;;;2.95;1.90;;;;;;;;;;4946400;29;20195;-85
2021/12/13 12:15:10;;;;;;;1.80;1.70;;;;;;;;;;4966497;28;20180;-85
2021/12/13 12:17:36;;;;;;;2.45;2.35;;;;;;;;;;4947756;28;20180;-84
2021/12/13 12:20:03;;;;;;;2.75;2.08;;;;;;;;;;4949213;29;20176;-84
2021/12/13 12:22:50;;;;;;;1.98;1.85;;;;;;;;;;4947365;29;20188;-85
2021/12/13 12:25:16;;;;;;;2.08;1.92;;;;;;;;;;4960889;29;20217;-87
2021/12/13 12:27:42;;;;;;;3.85;2.00;;;;;;;;;;4962480;29;20212;-87
2021/12/13 12:30:17;;;;;;;2.78;2.58;;;;;;;;;;4946707;29;20190;-91
2021/12/13 12:32:45;;;;;;;2.63;2.42;;;;;;;;;;4949762;29;20236;-86
2021/12/13 12:35:20;;;;;;;2.40;2.20;;;;;;;;;;4968275;28;20204;-87
2021/12/13 12:37:59;;;;;;;3.33;3.03;;;;;;;;;;4950731;29;20196;-87
2021/12/13 12:40:33;;;;;;;2.83;2.40;;;;;;;;;;4950070;29;20200;-87
2021/12/13 12:43:00;;;;;;;3.85;3.15;;;;;;;;;;4963715;28;20267;-90
2021/12/13 12:45:52;;;;;;;2.83;2.58;;;;;;;;;;4948783;29;20181;-87
2021/12/13 12:48:24;;;;;;;3.22;2.40;;;;;;;;;;4950470;29;20228;-87
2021/12/13 12:50:54;;;;;;;4.95;3.58;;;;;;;;;;4948229;29;20883;-88
2021/12/13 12:53:35;;;;;;;5.32;4.47;;;;;;;;;;4964897;29;20176;-85
2021/12/13 12:56:07;;;;;;;5.47;4.68;;;;;;;;;;4967094;28;20212;-87
2021/12/13 12:58:38;;;;;;;4.05;3.75;;;;;;;;;;4946954;29;20244;-87
2021/12/13 13:01:12;;;;;;;8.43;5.68;;;;;;;;;;4964418;28;20649;-87
2021/12/13 13:03:39;;;;;;;3.58;3.15;;;;;;;;;;4966387;28;20247;-88
2021/12/13 13:06:11;;;;;;;3.63;3.30;;;;;;;;;;4947659;29;20223;-83
2021/12/13 13:08:39;;;;;;;3.58;3.20;;;;;;;;;;4948573;28;20236;-91
2021/12/13 13:11:26;;;;;;;4.18;3.78;;;;;;;;;;4950478;29;20184;-85
2021/12/13 13:13:52;;;;;;;3.40;3.17;;;;;;;;;;4945398;29;20185;-86
2021/12/13 13:16:19;;;;;;;3.50;2.97;;;;;;;;;;4951569;29;20710;-84
2021/12/13 13:18:46;;;;;;;4.30;3.65;;;;;;;;;;4964634;29;20199;-87
2021/12/13 13:21:14;;;;;;;3.80;3.40;;;;;;;;;;4948856;29;20208;-86
2021/12/13 13:23:48;;;;;;;4.15;3.28;;;;;;;;;;4947937;29;20180;-85
2021/12/13 13:26:15;;;;;;;4.57;4.18;;;;;;;;;;4949772;29;20181;-85
2021/12/13 13:28:43;;;;;;;3.90;3.60;;;;;;;;;;4946486;29;20285;-86
2021/12/13 13:31:15;;;;;;;4.00;3.70;;;;;;;;;;4945425;29;20512;-85
2021/12/13 13:33:45;;;;;;;3.38;3.00;;;;;;;;;;4947973;29;20181;-85
2021/12/13 13:36:13;;;;;;;4.10;3.70;;;;;;;;;;4964689;28;20176;-86
2021/12/13 13:38:39;;;;;;;4.57;3.40;;;;;;;;;;4947431;28;20184;-85
2021/12/13 13:41:10;;;;;;;4.47;4.07;;;;;;;;;;4948358;29;20188;-85
2021/12/13 13:43:39;;;;;;;4.50;4.10;;;;;;;;;;4947342;29;20223;-86
2021/12/13 13:46:05;;;;;;;5.35;4.00;;;;;;;;;;4964048;28;20185;-84
2021/12/13 13:48:33;;;;;;;4.63;4.25;;;;;;;;;;4964336;28;20240;-83
2021/12/13 13:51:00;;;;;;;3.92;3.63;;;;;;;;;;4947973;29;20188;-86
2021/12/13 13:53:29;;;;;;;4.53;4.13;;;;;;;;;;4947670;28;20271;-86
2021/12/13 13:56:13;;;;;;;4.20;3.90;;;;;;;;;;4968593;28;20509;-85
2021/12/13 13:59:05;;;;;;;6.30;4.60;;;;;;;;;;4963984;28;20189;-86
2021/12/13 14:01:34;;;;;;;5.10;4.60;;;;;;;;;;4940074;29;20207;-86
2021/12/13 14:04:04;;;;;;;5.10;4.05;;;;;;;;;;4965315;28;20187;-86
2021/12/13 14:06:35;;;;;;;5.38;4.88;;;;;;;;;;4963988;28;20219;-85
2021/12/13 14:09:21;;;;;;;4.22;3.83;;;;;;;;;;4948896;28;20216;-84
2021/12/13 14:11:49;;;;;;;4.50;4.05;;;;;;;;;;4971972;28;20176;-84
2021/12/13 14:14:16;;;;;;;4.00;3.60;;;;;;;;;;4965997;29;20180;-84
2021/12/13 14:16:47;;;;;;;4.10;3.80;;;;;;;;;;4944386;29;20634;-85
2021/12/13 14:19:25;;;;;;;4.32;3.80;;;;;;;;;;4944203;29;20181;-83
2021/12/13 14:21:51;;;;;;;4.60;4.20;;;;;;;;;;4944347;29;20219;-84
2021/12/13 14:24:17;;;;;;;4.13;3.80;;;;;;;;;;4965210;29;20188;-84
2021/12/13 14:26:43;;;;;;;4.23;3.83;;;;;;;;;;4947145;28;20263;-84
2021/12/13 14:29:10;;;;;;;4.53;4.10;;;;;;;;;;4964972;29;20361;-84
2021/12/13 14:31:41;;;;;;;4.32;3.92;;;;;;;;;;4944983;29;20523;-84
2021/12/13 14:34:12;;;;;;;3.95;3.60;;;;;;;;;;4943831;29;20319;-83
2021/12/13 14:36:44;;;;;;;4.50;4.05;;;;;;;;;;4944858;29;20187;-84
2021/12/13 14:39:12;;;;;;;5.30;4.40;;;;;;;;;;4944280;29;20280;-84
2021/12/13 14:41:41;;;;;;;5.55;5.05;;;;;;;;;;4964542;29;20179;-84
2021/12/13 14:44:09;;;;;;;4.90;4.43;;;;;;;;;;4948307;29;20199;-84
2021/12/13 14:46:41;;;;;;;5.53;4.90;;;;;;;;;;4943702;29;20183;-83
2021/12/13 14:49:12;;;;;;;5.13;4.63;;;;;;;;;;4944005;29;20288;-84
2021/12/13 14:51:39;;;;;;;6.85;4.72;;;;;;;;;;4964333;28;20188;-83
2021/12/13 14:54:05;;;;;;;4.93;4.53;;;;;;;;;;4947097;29;20203;-84
2021/12/13 14:56:31;;;;;;;6.00;5.00;;;;;;;;;;4947503;28;20177;-83
2021/12/13 14:59:01;;;;;;;6.05;5.47;;;;;;;;;;4949685;29;20191;-84
2021/12/13 15:01:30;;;;;;;5.20;4.70;;;;;;;;;;4948055;29;20260;-83
2021/12/13 15:04:04;;;;;;;7.25;5.95;;;;;;;;;;4947991;29;20223;-83
2021/12/13 15:06:31;;;;;;;7.57;6.80;;;;;;;;;;4948292;29;20189;-84
2021/12/13 15:09:00;;;;;;;6.43;5.82;;;;;;;;;;4952095;29;20208;-84
2021/12/13 15:11:29;;;;;;;6.55;5.35;;;;;;;;;;4965787;29;20683;-84
2021/12/13 15:13:57;;;;;;;6.75;4.80;;;;;;;;;;4967131;28;20181;-85